Time;durP1;ratioP1;P1;durP2;ratioP2;P2;SDS_P1;SDS_P2;PMS_P1;PMS_P2;Temp;Humidity;BMP_temperature;BMP_pressure;BME280_temperature;BME280_humidity;BME280_pressure;Samples;Min_cycle;Max_cycle;Signal;HPM_P1;HPM_P2
2022/12/09 00:02:05;;;;;;;;;36.50;30.25;;;;;7.59;58.22;100078.88;5076003;27;45350;-40
2022/12/09 00:04:31;;;;;;;;;34.50;28.00;;;;;7.59;58.02;100076.28;5066882;27;45430;-42
2022/12/09 00:06:56;;;;;;;;;37.75;25.75;;;;;7.60;58.46;100071.94;5072565;27;45400;-42
2022/12/09 00:09:21;;;;;;;;;32.75;26.75;;;;;7.60;58.17;100069.34;5069670;28;45428;-42
2022/12/09 00:11:47;;;;;;;;;35.00;30.25;;;;;7.60;58.04;100066.75;5075198;28;54486;-41
2022/12/09 00:14:12;;;;;;;;;47.25;34.75;;;;;7.56;58.16;100063.34;5068446;28;45390;-41
2022/12/09 00:16:38;;;;;;;;;36.50;29.50;;;;;7.57;58.21;100067.66;5075746;28;45405;-41
2022/12/09 00:19:06;;;;;;;;;40.50;33.25;;;;;7.53;58.23;100060.81;5075018;27;45539;-40
2022/12/09 00:21:32;;;;;;;;;47.75;31.25;;;;;7.52;58.04;100059.09;5078493;28;46012;-44
2022/12/09 00:24:00;;;;;;;;;49.75;33.00;;;;;7.51;58.29;100056.56;5067533;28;45854;-42
2022/12/09 00:26:26;;;;;;;;;50.00;34.00;;;;;7.47;58.03;100053.19;5063207;27;45313;-42
2022/12/09 00:28:52;;;;;;;;;46.00;32.50;;;;;7.47;58.41;100053.19;5079717;27;46387;-42
2022/12/09 00:31:22;;;;;;;;;37.75;31.00;;;;;7.45;58.31;100054.94;5074318;27;45477;-42
2022/12/09 00:33:47;;;;;;;;;50.00;35.75;;;;;7.47;58.26;100057.50;5086576;27;45213;-42
2022/12/09 00:36:15;;;;;;;;;42.75;31.75;;;;;7.47;58.30;100055.78;5088194;27;53031;-42
2022/12/09 00:38:41;;;;;;;;;43.00;29.75;;;;;7.47;58.33;100054.91;5068889;28;45624;-41
2022/12/09 00:41:06;;;;;;;;;45.50;34.50;;;;;7.46;58.28;100050.63;5068154;28;46390;-42
2022/12/09 00:43:32;;;;;;;;;43.00;35.25;;;;;7.45;58.37;100047.13;5076979;27;60002;-43
2022/12/09 00:45:57;;;;;;;;;41.50;34.75;;;;;7.45;58.22;100046.28;5078017;27;45970;-40
2022/12/09 00:48:23;;;;;;;;;48.50;33.75;;;;;7.43;58.47;100048.94;5075023;27;45529;-42
2022/12/09 00:50:48;;;;;;;;;46.75;30.75;;;;;7.41;58.30;100046.34;5072240;27;62490;-43
2022/12/09 00:53:14;;;;;;;;;42.50;32.50;;;;;7.38;58.27;100049.06;5063745;27;53604;-43
2022/12/09 00:55:39;;;;;;;;;44.75;34.00;;;;;7.37;58.36;100049.09;5079160;27;49654;-43
2022/12/09 00:58:05;;;;;;;;;53.00;35.50;;;;;7.35;58.44;100043.91;5079342;27;45496;-44
2022/12/09 01:00:30;;;;;;;;;55.00;37.00;;;;;7.29;58.49;100046.66;5087287;27;47281;-44
2022/12/09 01:02:56;;;;;;;;;43.00;34.00;;;;;7.28;58.98;100036.28;5072276;27;45299;-41
2022/12/09 01:05:22;;;;;;;;;37.50;28.75;;;;;7.25;58.87;100033.78;5070412;27;45380;-43
2022/12/09 01:07:47;;;;;;;;;47.25;35.75;;;;;7.23;58.98;100026.00;5088374;27;45474;-43
2022/12/09 01:10:12;;;;;;;;;46.75;31.75;;;;;7.22;58.65;100030.38;5075985;27;47259;-42
2022/12/09 01:12:38;;;;;;;;;50.50;37.50;;;;;7.21;58.76;100028.66;5073145;27;45527;-43
2022/12/09 01:15:05;;;;;;;;;50.50;32.50;;;;;7.20;58.80;100029.53;5097172;27;45178;-42
2022/12/09 01:17:31;;;;;;;;;45.75;34.25;;;;;7.15;58.76;100027.94;5076559;27;45490;-46
2022/12/09 01:19:56;;;;;;;;;43.00;30.75;;;;;7.16;59.07;100030.50;5075600;27;45486;-42
2022/12/09 01:22:22;;;;;;;;;48.25;35.25;;;;;7.13;59.03;100025.38;5091922;27;45320;-41
2022/12/09 01:24:47;;;;;;;;;53.00;36.50;;;;;7.10;58.88;100025.47;5090120;27;45572;-41
2022/12/09 01:27:13;;;;;;;;;52.25;33.50;;;;;7.09;58.96;100028.09;5078129;27;45225;-42
2022/12/09 01:29:38;;;;;;;;;42.50;33.00;;;;;7.08;59.08;100026.38;5075417;27;46277;-44
2022/12/09 01:32:04;;;;;;;;;41.25;28.00;;;;;7.08;58.85;100029.81;5064362;27;62643;-42
2022/12/09 01:34:29;;;;;;;;;52.00;36.50;;;;;7.08;58.89;100034.19;5090469;27;45552;-42
2022/12/09 01:36:54;;;;;;;;;42.25;29.75;;;;;7.08;58.93;100026.38;5068676;27;48906;-42
2022/12/09 01:39:20;;;;;;;;;43.50;31.00;;;;;7.08;58.66;100028.97;5073718;27;46441;-41
2022/12/09 01:41:45;;;;;;;;;32.25;30.00;;;;;7.10;58.60;100035.88;5067865;27;45426;-42
2022/12/09 01:44:34;;;;;;;;;40.75;31.25;;;;;7.09;58.74;100030.69;5074900;27;45423;-44
2022/12/09 01:47:00;;;;;;;;;45.50;35.00;;;;;7.04;58.97;100026.44;5073576;27;48423;-42
2022/12/09 01:49:40;;;;;;;;;40.50;32.25;;;;;7.03;58.85;100029.09;5096182;27;46995;-44
2022/12/09 01:52:12;;;;;;;;;56.25;34.75;;;;;7.03;58.84;100027.34;5066051;28;46147;-41
2022/12/09 01:54:40;;;;;;;;;44.50;32.00;;;;;7.03;58.67;100026.50;5091398;27;45390;-43
2022/12/09 01:57:06;;;;;;;;;46.75;32.25;;;;;7.02;58.81;100035.19;5078270;27;45552;-43
2022/12/09 01:59:31;;;;;;;;;43.75;33.75;;;;;6.99;58.85;100025.72;5077247;28;45523;-44
2022/12/09 02:01:59;;;;;;;;;55.50;29.75;;;;;6.98;58.88;100034.41;5090251;27;59556;-42
2022/12/09 02:04:26;;;;;;;;;47.75;29.50;;;;;6.86;58.86;100020.84;5073601;27;45233;-42
2022/12/09 02:06:51;;;;;;;;;55.25;34.50;;;;;6.92;58.98;100021.53;5089958;27;46053;-42
2022/12/09 02:09:17;;;;;;;;;46.75;35.75;;;;;6.91;58.92;100022.44;5091113;27;46257;-44
2022/12/09 02:11:51;;;;;;;;;44.25;33.50;;;;;6.91;59.07;100024.19;5074624;27;51082;-42
2022/12/09 02:14:27;;;;;;;;;47.00;33.25;;;;;6.90;58.92;100025.91;5070251;28;45474;-45
2022/12/09 02:16:59;;;;;;;;;40.00;27.50;;;;;6.86;59.20;100021.69;5067213;27;45575;-43
2022/12/09 02:19:42;;;;;;;;;38.75;26.00;;;;;6.81;58.96;100019.16;5070266;28;45537;-42
2022/12/09 02:22:11;;;;;;;;;46.00;27.25;;;;;6.79;59.11;100020.13;5069755;27;45289;-42
2022/12/09 02:24:52;;;;;;;;;40.00;30.25;;;;;6.78;59.03;100010.59;5087976;27;45609;-42
2022/12/09 02:27:27;;;;;;;;;50.50;29.50;;;;;6.75;59.28;100008.94;5072521;28;46250;-42
2022/12/09 02:29:56;;;;;;;;;42.25;28.00;;;;;6.72;59.18;100008.16;5091556;27;45789;-42
2022/12/09 02:32:42;;;;;;;;;36.25;28.50;;;;;6.67;59.36;100007.41;5087691;27;45464;-44
2022/12/09 02:35:11;;;;;;;;;49.00;32.50;;;;;6.63;59.40;100009.22;5077170;28;45443;-42
2022/12/09 02:37:55;;;;;;;;;50.25;32.00;;;;;6.65;59.26;100013.47;5084858;27;45366;-43
2022/12/09 02:40:30;;;;;;;;;43.25;28.75;;;;;6.68;59.44;100009.97;5049955;28;46960;-39
2022/12/09 02:42:56;;;;;;;;;40.75;30.50;;;;;6.70;59.20;100004.72;5091454;27;45434;-40
2022/12/09 02:45:23;;;;;;;;;42.00;28.25;;;;;6.71;59.10;100001.22;5067797;27;45409;-42
2022/12/09 02:47:51;;;;;;;;;43.00;31.75;;;;;6.68;59.22;99999.56;5073564;27;45511;-41
2022/12/09 02:50:20;;;;;;;;;36.50;28.75;;;;;6.67;59.02;100000.44;5070639;27;47142;-43
2022/12/09 02:52:49;;;;;;;;;46.25;28.50;;;;;6.64;58.89;100000.53;5067387;28;45818;-43
2022/12/09 02:55:16;;;;;;;;;45.50;26.75;;;;;6.60;58.79;100001.47;5079166;27;45398;-41
2022/12/09 02:57:41;;;;;;;;;35.50;27.50;;;;;6.56;58.46;100003.28;5073880;28;45422;-42
2022/12/09 03:00:07;;;;;;;;;36.25;27.50;;;;;6.52;58.69;100001.66;5066344;27;68266;-41
2022/12/09 03:02:39;;;;;;;;;39.25;27.25;;;;;6.50;58.99;99999.97;5072418;27;46352;-42
2022/12/09 03:05:38;;;;;;;;;38.25;28.00;;;;;6.43;58.69;99994.91;5066064;28;45612;-42
2022/12/09 03:08:15;;;;;;;;;28.25;23.00;;;;;6.36;58.79;100001.13;5082309;27;45620;-42
2022/12/09 03:10:57;;;;;;;;;26.25;19.25;;;;;6.34;58.93;99999.44;5065695;28;46395;-41
2022/12/09 03:13:42;;;;;;;;;35.00;23.25;;;;;6.31;58.72;99999.53;5092554;27;45410;-41
2022/12/09 03:16:32;;;;;;;;;29.75;20.75;;;;;6.26;58.87;99994.41;5070630;28;45568;-42
2022/12/09 03:19:06;;;;;;;;;31.25;24.75;;;;;6.22;59.02;99995.38;5073986;27;45624;-42
2022/12/09 03:21:33;;;;;;;;;29.75;23.50;;;;;6.20;58.83;99986.75;5074383;27;45452;-42
2022/12/09 03:24:00;;;;;;;;;34.50;22.50;;;;;6.20;58.98;99976.38;5076662;27;45326;-43
2022/12/09 03:26:28;;;;;;;;;35.00;24.25;;;;;6.19;58.95;99987.63;5091188;27;45408;-42
2022/12/09 03:28:54;;;;;;;;;31.00;23.00;;;;;6.17;58.89;99990.25;5072079;27;45547;-41
2022/12/09 03:31:22;;;;;;;;;36.75;21.50;;;;;6.13;59.07;99986.03;5070566;28;45775;-41
2022/12/09 03:33:49;;;;;;;;;32.75;19.75;;;;;6.13;59.10;99986.03;5049249;28;45510;-41
2022/12/09 03:36:16;;;;;;;;;26.50;19.50;;;;;6.10;59.19;99982.63;5055889;28;45288;-42
2022/12/09 03:38:42;;;;;;;;;33.75;22.75;;;;;6.08;59.06;99980.06;5075981;27;58521;-41
2022/12/09 03:41:17;;;;;;;;;34.50;19.50;;;;;6.09;58.88;99981.75;5074696;27;47990;-41
2022/12/09 03:43:48;;;;;;;;;26.25;21.75;;;;;6.10;58.78;99977.44;5066955;27;45528;-41
2022/12/09 03:46:13;;;;;;;;;27.25;23.50;;;;;6.07;58.86;99973.16;5077102;27;45745;-42
2022/12/09 03:48:38;;;;;;;;;27.00;24.00;;;;;6.07;58.83;99971.44;5076816;28;45466;-41
2022/12/09 03:51:09;;;;;;;;;37.00;23.75;;;;;6.09;59.00;99971.38;5073251;28;60222;-41
2022/12/09 03:53:40;;;;;;;;;36.00;22.00;;;;;6.05;58.83;99964.53;5072842;27;45446;-42
2022/12/09 03:56:14;;;;;;;;;29.75;21.25;;;;;6.01;58.88;99974.13;5071464;27;45423;-41
2022/12/09 03:58:41;;;;;;;;;26.75;20.75;;;;;5.98;58.87;99970.75;5090121;27;45305;-41
2022/12/09 04:01:08;;;;;;;;;33.50;21.75;;;;;5.97;59.03;99969.06;5082211;27;63502;-42
2022/12/09 04:03:33;;;;;;;;;30.25;22.25;;;;;5.94;58.99;99958.69;5073214;28;45573;-42
2022/12/09 04:05:59;;;;;;;;;30.75;22.25;;;;;5.96;58.85;99965.59;5075188;27;45610;-42
2022/12/09 04:08:24;;;;;;;;;29.50;14.75;;;;;5.96;58.97;99965.59;5069932;27;45493;-43
2022/12/09 04:10:49;;;;;;;;;30.75;22.25;;;;;5.96;58.93;99968.19;5076676;27;45894;-41
2022/12/09 04:13:15;;;;;;;;;30.25;24.25;;;;;5.99;58.88;99975.06;5071241;27;61782;-42
2022/12/09 04:15:40;;;;;;;;;27.25;22.00;;;;;5.99;58.90;99965.53;5072369;27;61157;-41
2022/12/09 04:18:05;;;;;;;;;19.25;16.25;;;;;5.99;58.60;99962.09;5066713;27;61056;-42
2022/12/09 04:20:31;;;;;;;;;32.50;23.00;;;;;6.00;58.58;99959.47;5068321;27;46081;-42
2022/12/09 04:22:56;;;;;;;;;65.00;40.00;;;;;5.99;58.77;99949.94;5077771;27;45485;-42
2022/12/09 04:25:21;;;;;;;;;30.00;22.25;;;;;6.00;58.56;99949.06;5097230;27;57947;-43
2022/12/09 04:27:47;;;;;;;;;33.50;26.50;;;;;6.03;58.68;99948.13;5075686;27;45368;-41
2022/12/09 04:30:12;;;;;;;;;31.50;22.25;;;;;6.03;58.74;99946.38;5076038;27;62573;-41
2022/12/09 04:32:37;;;;;;;;;33.75;21.50;;;;;6.06;58.41;99948.09;5077936;27;45226;-42
2022/12/09 04:35:03;;;;;;;;;34.75;25.25;;;;;6.07;58.20;99948.06;5078733;28;45388;-43
2022/12/09 04:37:28;;;;;;;;;31.00;24.25;;;;;6.02;58.38;99947.28;5073386;27;45576;-41
2022/12/09 04:39:54;;;;;;;;;39.25;22.25;;;;;6.01;58.37;99950.75;5076952;27;54421;-43
2022/12/09 04:42:19;;;;;;;;;33.50;22.75;;;;;6.03;58.25;99951.59;5076153;27;61958;-41
2022/12/09 04:44:44;;;;;;;;;27.00;22.75;;;;;6.02;58.08;99955.09;5075977;27;56870;-41
2022/12/09 04:47:10;;;;;;;;;31.75;22.25;;;;;6.00;58.06;99953.38;5071773;27;45611;-41
2022/12/09 04:49:35;;;;;;;;;28.00;24.50;;;;;5.97;58.01;99949.13;5081229;27;56338;-41
2022/12/09 04:52:00;;;;;;;;;36.50;21.25;;;;;5.99;58.07;99951.69;5075992;27;61319;-41
2022/12/09 04:54:26;;;;;;;;;27.75;23.50;;;;;5.97;57.73;99956.06;5066529;27;61817;-45
2022/12/09 04:56:51;;;;;;;;;26.50;19.25;;;;;5.94;57.85;99950.91;5074058;27;45394;-41
2022/12/09 04:59:16;;;;;;;;;36.50;20.50;;;;;5.91;57.93;99944.00;5062745;28;63228;-41
2022/12/09 05:01:42;;;;;;;;;34.25;26.00;;;;;5.89;58.01;99944.03;5069544;27;53514;-41
2022/12/09 05:04:08;;;;;;;;;23.25;16.75;;;;;5.88;57.90;99941.50;5068564;28;45888;-41
2022/12/09 05:06:34;;;;;;;;;32.75;21.50;;;;;5.88;57.98;99950.13;5077123;27;45292;-41
2022/12/09 05:08:59;;;;;;;;;26.75;20.00;;;;;5.86;57.87;99943.25;5070041;27;67138;-42
2022/12/09 05:11:25;;;;;;;;;28.25;20.25;;;;;5.84;57.70;99947.63;5076829;27;45512;-42
2022/12/09 05:13:52;;;;;;;;;32.50;21.25;;;;;5.81;57.72;99947.72;5081630;27;45268;-41
2022/12/09 05:16:18;;;;;;;;;35.00;21.00;;;;;5.77;57.72;99946.91;5070631;27;45486;-42
2022/12/09 05:18:45;;;;;;;;;26.00;21.50;;;;;5.75;57.31;99953.84;5093281;27;47120;-42
2022/12/09 05:21:16;;;;;;;;;23.50;18.75;;;;;5.70;57.58;99960.88;5074710;27;45392;-42
2022/12/09 05:23:41;;;;;;;;;25.25;19.75;;;;;5.68;57.52;99950.53;5089713;27;45460;-41
2022/12/09 05:26:09;;;;;;;;;28.50;19.75;;;;;5.69;57.91;99951.41;5069561;27;50356;-42
2022/12/09 05:28:35;;;;;;;;;29.50;18.50;;;;;5.69;57.50;99952.25;5075919;27;46503;-43
2022/12/09 05:31:06;;;;;;;;;25.75;19.50;;;;;5.68;57.45;99953.16;5074667;28;45358;-44
2022/12/09 05:33:31;;;;;;;;;25.50;19.00;;;;;5.61;57.39;99953.28;5075465;27;45544;-42
2022/12/09 05:35:57;;;;;;;;;27.50;21.25;;;;;5.56;57.23;99962.88;5078128;27;45391;-42
2022/12/09 05:38:23;;;;;;;;;20.00;16.50;;;;;5.49;57.39;99964.75;5073267;27;46917;-41
2022/12/09 05:40:48;;;;;;;;;19.00;13.25;;;;;5.46;57.26;99964.81;5077714;27;45220;-41
2022/12/09 05:43:14;;;;;;;;;22.00;14.75;;;;;5.40;57.29;99962.31;5074314;27;45829;-42
2022/12/09 05:45:39;;;;;;;;;25.75;22.75;;;;;5.34;57.31;99965.88;5077548;27;45310;-42
2022/12/09 05:48:05;;;;;;;;;23.50;12.50;;;;;5.27;57.46;99961.69;5075249;27;54509;-42
2022/12/09 05:50:30;;;;;;;;;23.50;17.00;;;;;5.20;57.80;99960.94;5077281;27;46289;-43
2022/12/09 05:52:56;;;;;;;;;24.25;13.00;;;;;5.21;57.81;99967.84;5071423;27;59791;-43
2022/12/09 05:55:21;;;;;;;;;26.00;21.25;;;;;5.18;57.57;99962.69;5078684;27;45209;-42
2022/12/09 05:57:46;;;;;;;;;13.50;12.00;;;;;5.18;57.19;99965.28;5086477;27;68449;-42
2022/12/09 06:00:12;;;;;;;;;19.25;14.75;;;;;5.15;57.38;99967.94;5069257;27;59124;-41
2022/12/09 06:02:38;;;;;;;;;17.00;12.25;;;;;5.12;57.14;99968.00;5075520;27;45391;-42
2022/12/09 06:05:03;;;;;;;;;28.25;18.00;;;;;5.09;56.90;99963.72;5061841;28;45927;-41
2022/12/09 06:07:29;;;;;;;;;26.50;19.25;;;;;5.05;56.93;99984.56;5076346;27;48343;-48
2022/12/09 06:09:54;;;;;;;;;27.75;19.50;;;;;4.99;57.10;99980.28;5069378;27;45313;-42
2022/12/09 06:12:19;;;;;;;;;27.50;20.50;;;;;4.95;57.24;99982.09;5072017;27;45486;-46
2022/12/09 06:14:45;;;;;;;;;29.25;19.00;;;;;4.94;57.33;99984.72;5078341;27;45474;-41
2022/12/09 06:17:10;;;;;;;;;33.25;20.75;;;;;4.92;57.38;99992.53;5059051;28;50547;-42
2022/12/09 06:19:35;;;;;;;;;16.25;13.75;;;;;4.91;57.16;99992.53;5066744;27;59455;-41
2022/12/09 06:22:01;;;;;;;;;33.00;22.50;;;;;4.89;57.17;99995.16;5068805;27;49510;-42
2022/12/09 06:24:26;;;;;;;;;23.75;20.50;;;;;4.89;56.85;99989.97;5067055;28;65949;-42
2022/12/09 06:26:53;;;;;;;;;27.00;17.75;;;;;4.87;56.90;99994.34;5084017;27;57929;-41
2022/12/09 06:29:18;;;;;;;;;22.00;18.25;;;;;4.86;57.08;99992.59;5073191;27;45427;-41
2022/12/09 06:31:43;;;;;;;;;27.00;19.75;;;;;4.88;56.73;99996.03;5073769;27;45609;-41
2022/12/09 06:34:09;;;;;;;;;23.75;17.00;;;;;4.88;56.94;100001.22;5076289;27;45362;-40
2022/12/09 06:36:34;;;;;;;;;25.50;18.00;;;;;4.85;56.83;99992.63;5075122;27;45405;-41
2022/12/09 06:39:02;;;;;;;;;19.00;17.50;;;;;4.85;56.88;100001.28;5087069;27;57722;-40
2022/12/09 06:41:27;;;;;;;;;25.25;17.25;;;;;4.84;57.01;99998.72;5075548;28;45304;-41
2022/12/09 06:43:55;;;;;;;;;29.00;16.50;;;;;4.81;56.94;99999.59;5076217;27;45491;-41
2022/12/09 06:46:24;;;;;;;;;29.75;17.00;;;;;4.80;56.93;99997.91;5090494;27;46395;-40
2022/12/09 06:48:50;;;;;;;;;24.75;15.25;;;;;4.79;56.67;99990.13;5073155;27;45708;-40
2022/12/09 06:51:17;;;;;;;;;22.25;18.00;;;;;4.76;56.90;99988.44;5072405;27;45465;-40
2022/12/09 06:53:42;;;;;;;;;24.75;21.75;;;;;4.74;56.87;99987.59;5071549;27;45819;-41
2022/12/09 06:56:09;;;;;;;;;24.50;20.00;;;;;4.75;56.66;99990.19;5069718;28;46076;-40
2022/12/09 06:58:35;;;;;;;;;22.50;16.50;;;;;4.75;57.09;99994.50;5074612;27;45357;-41
2022/12/09 07:01:07;;;;;;;;;29.25;20.50;;;;;4.77;56.97;99987.56;5074253;27;45453;-41
2022/12/09 07:03:33;;;;;;;;;26.00;19.00;;;;;4.78;56.48;99991.00;5067096;27;45585;-41
2022/12/09 07:06:00;;;;;;;;;25.75;19.00;;;;;4.77;56.70;99984.13;5076239;27;45565;-41
2022/12/09 07:08:25;;;;;;;;;23.00;17.50;;;;;4.80;56.46;99991.84;5067340;27;45300;-41
2022/12/09 07:10:51;;;;;;;;;22.75;14.50;;;;;4.80;56.54;99991.84;5071210;27;48850;-40
2022/12/09 07:13:16;;;;;;;;;21.25;18.25;;;;;4.80;56.66;99995.31;5074346;27;55100;-44
2022/12/09 07:15:41;;;;;;;;;24.50;17.25;;;;;4.80;56.40;99995.31;5065021;27;68777;-41
2022/12/09 07:18:07;;;;;;;;;32.25;19.25;;;;;4.79;56.15;99992.72;5072929;27;61315;-46
2022/12/09 07:20:32;;;;;;;;;25.00;17.25;;;;;4.79;56.22;99996.16;5067189;27;45683;-43
2022/12/09 07:22:58;;;;;;;;;20.25;15.75;;;;;4.74;56.17;99995.38;5077870;27;65330;-43
2022/12/09 07:25:23;;;;;;;;;30.00;19.00;;;;;4.74;56.22;100014.38;5067690;27;47040;-41
2022/12/09 07:27:48;;;;;;;;;20.00;17.00;;;;;4.72;56.44;100004.91;5070854;28;58362;-41
2022/12/09 07:30:14;;;;;;;;;30.00;21.00;;;;;4.72;56.27;100008.34;5075056;27;56321;-42
2022/12/09 07:32:39;;;;;;;;;19.50;17.75;;;;;4.71;56.51;100005.78;5086712;27;45554;-41
2022/12/09 07:35:05;;;;;;;;;22.75;18.25;;;;;4.72;56.40;100008.34;5072766;27;63277;-42
2022/12/09 07:37:30;;;;;;;;;20.75;14.75;;;;;4.71;56.34;100000.59;5091173;27;45429;-40
2022/12/09 07:39:55;;;;;;;;;24.50;17.50;;;;;4.71;55.86;100011.84;5069540;27;51828;-41
2022/12/09 07:42:21;;;;;;;;;24.00;15.25;;;;;4.67;56.25;100010.16;5073070;27;61528;-40
2022/12/09 07:44:49;;;;;;;;;27.25;18.00;;;;;4.65;56.31;100013.66;5071356;27;62323;-42
2022/12/09 07:47:14;;;;;;;;;27.75;20.25;;;;;4.66;56.50;100013.66;5072885;27;58840;-40
2022/12/09 07:49:39;;;;;;;;;29.50;18.25;;;;;4.64;56.29;100009.34;5070643;27;45461;-40
2022/12/09 07:52:05;;;;;;;;;26.25;20.00;;;;;4.65;56.24;100018.84;5074972;27;59153;-43
2022/12/09 07:54:30;;;;;;;;;22.00;17.75;;;;;4.67;56.27;100022.28;5071032;27;58429;-40
2022/12/09 07:56:55;;;;;;;;;19.50;16.25;;;;;4.65;55.98;100029.22;5069218;28;52712;-40
2022/12/09 07:59:21;;;;;;;;;20.75;17.25;;;;;4.64;56.00;100024.91;5076400;27;45504;-40
2022/12/09 08:01:46;;;;;;;;;23.00;17.75;;;;;4.64;56.24;100024.91;5078661;27;45425;-40
2022/12/09 08:04:11;;;;;;;;;20.25;16.50;;;;;4.64;55.93;100028.38;5069322;27;67986;-40
2022/12/09 08:06:37;;;;;;;;;25.50;17.75;;;;;4.63;56.27;100026.66;5071856;27;45404;-40
2022/12/09 08:09:05;;;;;;;;;21.75;16.75;;;;;4.62;56.13;100027.53;5079530;27;45469;-40
2022/12/09 08:11:31;;;;;;;;;32.25;19.25;;;;;4.61;56.29;100024.97;5070146;27;46843;-40
2022/12/09 08:13:59;;;;;;;;;24.75;19.00;;;;;4.61;56.15;100023.22;5073259;27;45340;-40
2022/12/09 08:16:25;;;;;;;;;22.50;17.00;;;;;4.59;56.40;100027.56;5080780;27;45268;-40
2022/12/09 08:18:51;;;;;;;;;26.25;19.50;;;;;4.61;56.53;100018.03;5075408;27;45526;-40
2022/12/09 08:21:23;;;;;;;;;26.25;18.00;;;;;4.61;56.20;100030.16;5074639;27;45472;-40
2022/12/09 08:23:49;;;;;;;;;21.75;16.75;;;;;4.60;56.28;100025.81;5073001;28;45522;-40
2022/12/09 08:26:15;;;;;;;;;25.00;19.25;;;;;4.59;56.15;100017.22;5075812;28;45361;-40
2022/12/09 08:28:41;;;;;;;;;23.00;18.00;;;;;4.58;56.35;100020.66;5074428;28;45511;-41
2022/12/09 08:31:12;;;;;;;;;21.25;16.00;;;;;4.57;56.16;100025.00;5073344;28;45668;-40
2022/12/09 08:33:38;;;;;;;;;21.75;16.00;;;;;4.56;56.08;100025.00;5088359;27;48164;-40
2022/12/09 08:36:09;;;;;;;;;6.75;0.00;;;;;4.55;56.56;100023.28;5078938;28;45924;-39
2022/12/09 08:38:34;;;;;;;;;19.00;12.50;;;;;4.49;56.50;100019.06;5074978;27;45269;-40
2022/12/09 08:41:10;;;;;;;;;28.25;23.00;;;;;4.56;56.30;100033.63;5070274;27;58576;-41
2022/12/09 08:43:37;;;;;;;;;23.00;21.00;;;;;4.56;56.41;100022.44;5069794;27;45464;-42
2022/12/09 08:46:02;;;;;;;;;40.50;30.25;;;;;4.59;57.01;100027.56;5075054;27;45446;-41
2022/12/09 08:48:27;;;;;;;;;37.00;22.00;;;;;4.64;56.63;100027.50;5077909;27;45831;-42
2022/12/09 08:50:53;;;;;;;;;28.00;21.75;;;;;4.64;56.56;100030.97;5080778;27;66111;-40
2022/12/09 08:53:18;;;;;;;;;38.25;27.00;;;;;4.65;56.47;100039.59;5071265;27;45754;-40
2022/12/09 08:55:43;;;;;;;;;28.00;25.25;;;;;4.66;56.67;100036.13;5075121;27;58378;-41
2022/12/09 08:58:09;;;;;;;;;40.50;28.25;;;;;4.68;56.78;100039.56;5081202;27;52743;-40
2022/12/09 09:00:34;;;;;;;;;36.50;27.25;;;;;4.69;56.79;100033.47;5091559;27;65916;-40
2022/12/09 09:02:59;;;;;;;;;36.75;23.50;;;;;4.67;56.64;100041.25;5075753;27;45418;-41
2022/12/09 09:05:25;;;;;;;;;29.00;22.25;;;;;4.69;56.75;100042.13;5067301;27;45616;-41
2022/12/09 09:07:50;;;;;;;;;33.75;24.00;;;;;4.70;56.66;100038.63;5065502;28;57526;-41
2022/12/09 09:10:15;;;;;;;;;20.50;13.25;;;;;4.70;56.71;100050.75;5073223;28;57959;-42
2022/12/09 09:12:41;;;;;;;;;38.00;27.75;;;;;4.70;56.66;100030.00;5074792;28;45373;-40
2022/12/09 09:15:07;;;;;;;;;35.50;24.50;;;;;4.71;56.87;100042.94;5071395;28;45529;-41
2022/12/09 09:17:32;;;;;;;;;33.25;23.50;;;;;4.70;56.78;100037.78;5073134;28;45442;-42
2022/12/09 09:19:57;;;;;;;;;27.50;21.50;;;;;4.66;56.80;100047.34;5080249;27;45420;-40
2022/12/09 09:22:23;;;;;;;;;35.50;23.00;;;;;4.65;56.77;100035.25;5070434;27;46782;-40
2022/12/09 09:24:49;;;;;;;;;34.50;28.00;;;;;4.68;56.77;100039.56;5067746;27;48526;-40
2022/12/09 09:27:15;;;;;;;;;31.00;27.75;;;;;4.68;56.86;100036.97;5080143;27;45223;-39
2022/12/09 09:29:40;;;;;;;;;32.50;26.00;;;;;4.72;56.76;100041.22;5071169;27;45424;-39
2022/12/09 09:32:06;;;;;;;;;15.50;15.50;;;;;4.74;57.02;100036.84;5072326;28;47122;-39
2022/12/09 09:34:32;;;;;;;;;27.50;16.75;;;;;4.76;56.61;100040.28;5072731;28;45863;-42
2022/12/09 09:36:57;;;;;;;;;24.00;21.00;;;;;4.78;56.42;100041.13;5088337;27;45757;-40
2022/12/09 09:39:23;;;;;;;;;26.25;24.00;;;;;4.78;56.57;100046.31;5087602;27;62729;-39
2022/12/09 09:41:59;;;;;;;;;28.00;22.25;;;;;4.79;56.57;100045.41;5072291;27;45386;-39
2022/12/09 09:44:43;;;;;;;;;33.25;26.25;;;;;4.77;56.23;100042.00;5077409;27;45419;-39
2022/12/09 09:47:29;;;;;;;;;30.75;22.00;;;;;4.75;56.61;100049.78;5072152;28;45453;-39
2022/12/09 09:50:01;;;;;;;;;35.75;22.50;;;;;4.74;56.66;100042.03;5062371;28;45315;-39
2022/12/09 09:52:28;;;;;;;;;31.25;24.25;;;;;4.73;56.70;100043.78;5079202;27;45275;-40
2022/12/09 09:54:53;;;;;;;;;42.00;26.00;;;;;4.73;56.47;100050.72;5074457;27;45482;-39
2022/12/09 09:57:37;;;;;;;;;42.50;28.50;;;;;4.72;56.55;100042.06;5071521;28;57053;-40
2022/12/09 10:00:11;;;;;;;;;43.50;28.75;;;;;4.79;56.82;100040.25;5090442;27;45394;-46
2022/12/09 10:03:11;;;;;;;;;37.25;27.75;;;;;4.84;56.56;100046.22;5070765;28;46667;-47
2022/12/09 10:05:44;;;;;;;;;44.25;30.50;;;;;4.87;56.52;100040.13;5044374;27;45788;-46
2022/12/09 10:08:23;;;;;;;;;39.75;29.25;;;;;4.92;56.71;100039.19;5084911;27;45279;-45
2022/12/09 10:11:07;;;;;;;;;43.75;25.25;;;;;4.95;56.57;100039.13;5069806;28;45481;-46
2022/12/09 10:13:41;;;;;;;;;54.25;31.25;;;;;4.99;56.75;100026.97;5084595;27;47221;-47
2022/12/09 10:16:20;;;;;;;;;38.25;30.50;;;;;5.04;56.62;100026.91;5074587;28;45511;-49
2022/12/09 10:18:51;;;;;;;;;32.25;25.75;;;;;5.04;56.38;100027.75;5068372;27;45544;-46
2022/12/09 10:21:19;;;;;;;;;41.00;29.25;;;;;5.06;56.35;100026.00;5068954;28;45823;-45
2022/12/09 10:23:45;;;;;;;;;33.50;21.75;;;;;5.08;56.47;100021.66;5086672;27;47213;-45
2022/12/09 10:26:21;;;;;;;;;44.75;33.50;;;;;5.12;56.26;100015.53;5065691;28;45321;-49
2022/12/09 10:28:52;;;;;;;;;34.75;19.00;;;;;5.14;56.42;100015.50;5070145;28;45383;-47
2022/12/09 10:31:18;;;;;;;;;43.50;33.25;;;;;5.14;56.16;100008.56;5084381;27;45437;-44
2022/12/09 10:33:43;;;;;;;;;42.50;31.75;;;;;5.18;56.39;100014.56;5068643;28;45960;-46
2022/12/09 10:36:28;;;;;;;;;36.25;29.75;;;;;5.23;56.35;100014.50;5067068;27;45166;-45
2022/12/09 10:38:53;;;;;;;;;39.00;29.50;;;;;5.27;56.52;100008.38;5074377;28;45667;-45
2022/12/09 10:44:36;;;;;;;;;34.50;26.75;;;;;5.33;55.70;100003.94;5080187;27;45418;-45
2022/12/09 10:47:03;;;;;;;;;40.75;29.50;;;;;5.33;55.76;100009.13;5077912;28;45291;-45
2022/12/09 10:49:29;;;;;;;;;40.25;30.25;;;;;5.35;55.94;100006.53;5086615;27;45344;-47
2022/12/09 10:51:54;;;;;;;;;50.00;34.50;;;;;5.37;55.90;99998.72;5070845;28;46958;-46
2022/12/09 10:54:32;;;;;;;;;26.25;24.00;;;;;5.37;55.77;100001.31;5056144;27;45751;-50
2022/12/09 10:57:25;;;;;;;;;42.75;29.75;;;;;5.38;55.80;100001.25;5049607;28;45435;-47
2022/12/09 11:00:01;;;;;;;;;30.75;24.00;;;;;5.40;55.87;100001.22;5058088;28;45964;-47
2022/12/09 11:02:28;;;;;;;;;41.00;26.50;;;;;5.39;55.52;100000.38;5076252;28;45582;-44
2022/12/09 11:04:54;;;;;;;;;45.75;30.00;;;;;5.39;55.47;100000.38;5087370;27;46077;-45
2022/12/09 11:07:24;;;;;;;;;35.75;26.75;;;;;5.38;55.68;99987.44;5064245;28;45418;-44
2022/12/09 11:09:52;;;;;;;;;39.25;25.25;;;;;5.38;55.80;99992.63;5073241;28;45430;-45
2022/12/09 11:12:27;;;;;;;;;38.50;28.50;;;;;5.37;55.59;99986.59;5071750;27;45255;-45
2022/12/09 11:15:00;;;;;;;;;38.00;30.75;;;;;5.38;55.67;99980.50;5066611;27;45382;-43
2022/12/09 11:17:38;;;;;;;;;34.00;24.50;;;;;5.40;55.83;99977.88;5076298;28;45482;-43
2022/12/09 11:20:03;;;;;;;;;31.75;26.00;;;;;5.42;56.07;99979.56;5066124;27;45378;-43
2022/12/09 11:22:40;;;;;;;;;46.25;33.25;;;;;5.44;55.78;99982.16;5061989;27;45314;-43
2022/12/09 11:25:11;;;;;;;;;30.75;27.00;;;;;5.46;56.08;99985.56;5066786;28;46128;-43
2022/12/09 11:27:41;;;;;;;;;48.00;33.25;;;;;5.48;55.78;99976.00;5074074;28;45668;-45
2022/12/09 11:30:13;;;;;;;;;36.00;32.25;;;;;5.49;55.72;99975.13;5064658;28;45311;-45